NWS Home NWS Lubbock West Texas Mesonet Latest Conditions as of 0536 AM, Sun Jul 23, 2017

Latest   N   C   S   Daily Sum   3hrΔ   24hrΔ   Soil Data 
Site Map   24hr Precip   72hr Precip   Google Plot


Station Time of Last Temp Dew Pt. RH Wind Direction Wind Speed Wind Gust Max Wind Max Temp Min Temp Max RH Min RH Altimeter 1HR Rain Today's Rain Solar Rad
Abernathy 5ENE  05:30 AM 69 63 86% W57 18 mph 351° @ 0325 AM 76 69 86 61 30.03" 0 0 0
Aiken 3WSW  05:30 AM 70 65 87% S11 23 mph 342° @ 0256 AM 76 69 89 67 30.04" 0 0 0
Amarillo 15NNW   05:30 AM 69 62 80% NW56 11 mph 300° @ 0500 AM 77 69 80 47 30.03" 0 0 0
Amarillo 7SSE  05:30 AM 67 61 83% W99 16 mph 236° @ 0418 AM 74 64 83 62 30.06" 0 0 0
Amarillo 9NNE  05:30 AM 69 62 80% NW23 12 mph 245° @ 0404 AM 77 67 80 53 30.03" 0 0 0
Amherst 1NE  05:30 AM 70 62 80% W35 16 mph 255° @ 1210 AM 72 69 84 70 30.06" 0 0 0
Andrews 2E  05:30 AM 70 61 74% SE811 22 mph 94° @ 0455 AM 76 70 74 53 30.04" 0 0 0
Anton 6SSW  05:30 AM 69 62 80% NW67 14 mph 343° @ 0245 AM 79 69 80 57 30.04" 0 0 0
Aspermont 3NE  05:30 AM 76 66 71% W67 14 mph 257° @ 0130 AM 85 76 71 47 29.92" 0 0 0
Big Lake 1WNW  05:30 AM 71 63 77% SE68 13 mph 268° @ 1204 AM 76 70 79 62 30.01" 0 0 0
Bootleg 11WNW  05:30 AM 65 61 87% NW66 20 mph 330° @ 1204 AM 72 64 90 63 30.14" 0 0 0
Boys Ranch 1WSW  05:30 AM 69 64 83% NW45 12 mph 100° @ 1201 AM 74 69 85 69 30.04" 0 0 0
Brownfield 2S  05:30 AM 73 59 62% NW23 13 mph 268° @ 0135 AM 76 73 62 55 30.05" 0 0 0
Canadian 6E  05:30 AM 74 62 66% SW11 13 mph 2° @ 0110 AM 86 72 70 40 29.93" 0 0 0
Caprock Canyons State Park  05:30 AM 74 63 69% SW56 22 mph 256° @ 0305 AM 76 73 76 58 29.97" 0 0 0
Childress 2NNE  05:30 AM 73 64 78% N811 17 mph 233° @ 0345 AM 80 73 78 56 29.93" 0 0 0
Clarendon 2WSW  05:30 AM 73 60 65% N34 23 mph 233° @ 0205 AM 77 73 74 57 29.99" 0 0 0
Claude 12SW  05:30 AM 74 60 62% SW34 16 mph 158° @ 0209 AM 78 73 68 52 30.04" 0 0 0
Clyde 2WNW  05:30 AM 74 64 70% SW22 16 mph 155° @ 1213 AM 86 74 71 46 29.94" 0 0 0
Coyanosa 2N  05:30 AM 71 71 99% NE45 13 mph 139° @ 1201 AM 72 71 99 83 29.99" 0 0.01 0
Crowell 1E  05:30 AM 78 66 66% NW78 14 mph 283° @ 0438 AM 85 78 67 51 29.91" 0 0 0
Dell City  05:30 AM 70 65 84% W12 11 mph 144° @ 1259 AM 73 67 88 71 30.06" 0 0 0
Denver City 7WNW  05:30 AM 69 62 81% N1317 17 mph 340° @ 0530 AM 74 69 81 55 30.05" 0.02 0.02 0
Dimmitt 2NE  05:30 AM 68 62 81% W67 24 mph 305° @ 1230 AM 74 68 81 60 30.07" 0 0 0
Dora NM 2SW  05:30 AM 67 65 97% W45 18 mph 195° @ 1220 AM 71 66 98 64 30.12" 0 0 0
Dozier 3W  05:30 AM 76 62 62% W33 16 mph 271° @ 0219 AM 83 75 64 45 29.97" 0 0 0
Floydada 2NNE  05:30 AM 67 64 92% W88 13 mph 280° @ 0325 AM 72 67 92 83 30.01" 0 0 0
Fluvanna 3WNW  05:30 AM 72 61 70% W88 16 mph 119° @ 0210 AM 79 72 71 57 29.99" 0 0 0
Fort Chadbourne  05:30 AM 75 69 82% W45 16 mph 313° @ 1258 AM 85 75 82 51 29.94" 0 0 0
Fort Lancaster  05:30 AM 78 64 62% E34 10 mph 106° @ 0449 AM 81 73 67 51 29.96" 0 0 0
Fort Lewis CO  05:30 AM 60 47 61% NE89 15 mph 80° @ 0438 AM 62 58 74 57 30.38" 0 0 0
Fort McKavett  05:30 AM 75 67 77% S23 17 mph 151° @ 0149 AM 84 75 77 51 29.97" 0 0 0
Friona 2NE  05:25 AM 66 59 81% NW34 20 mph 340° @ 1205 AM 75 65 84 56 30.11" 0 0 0
Gail 2ESE  05:30 AM 71 63 80% NW24 17 mph 93° @ 0225 AM 78 70 83 62 29.98" 0 0.01 0
Goodlett 3W  05:30 AM 76 63 64% NW1114 15 mph 313° @ 0500 AM 83 75 72 54 29.90" 0 0 0
Goodnight  05:30 AM 72 62 72% NW1112 24 mph 251° @ 0340 AM 77 72 73 60 30.01" 0 0 0
Graham 5SSW  05:30 AM 71 65 82% W910 16 mph 254° @ 1225 AM 76 71 82 64 30.00" 0 0 0
Guadalupe Mtns Natl Park  05:30 AM 67 57 72% SW79 19 mph 301° @ 0413 AM 72 67 77 52 30.16" 0 0 0
Guthrie 10WSW  05:30 AM 75 64 68% W57 12 mph 80° @ 1205 AM 78 75 80 64 29.92" 0 0 0
Hart 3N  05:30 AM 68 64 87% W56 16 mph 313° @ 0100 AM 74 68 87 65 30.05" 0 0 0
Haskell 1NW  05:30 AM 74 62 69% NW56 12 mph 238° @ 1205 AM 87 74 70 40 29.90" 0 0 0
Hereford 2NW  05:30 AM 67 55 68% W45 21 mph 320° @ 1230 AM 77 65 74 48 30.08" 0 0 0
Hobbs NM 5NW  05:30 AM 73 58 60% NW68 26 mph 231° @ 0338 AM 74 69 84 53 30.05" 0 0.02 0
Jayton 1SSE  05:30 AM 74 67 81% SW67 34 mph 153° @ 1250 AM 83 74 81 40 29.94" 0 0.60 0
Junction 1SSW  05:30 AM 79 71 76% S56 18 mph 153° @ 0100 AM 86 79 76 47 29.95" 0 0 0
Knox City 3NW  05:30 AM 76 61 63% N00 9 mph 217° @ 0210 AM 87 76 63 43 29.90" 0 0 0
Lake Alan Henry 1NW  05:30 AM 76 61 60% W58 17 mph 80° @ 0118 AM 80 76 66 49 29.97" 0 0 0
Lamesa 2SE  05:30 AM 71 61 72% N12 18 mph 85° @ 0335 AM 76 71 72 60 30.03" 0 0 0
Levelland 4S  05:30 AM 70 59 70% N56 17 mph 350° @ 0320 AM 77 70 70 48 30.06" 0 0 0
Lomax 1SSE  05:30 AM 73 64 73% N00 16 mph 235° @ 1212 AM 78 72 73 58 30.00" 0 0 0
Lubbock 3WNW TTU  05:30 AM 71 62 76% W22 17 mph 347° @ 0325 AM 79 71 77 51 30.03" 0 0 0
McCamey 1SSW  05:30 AM 73 70 89% E22 16 mph 308° @ 1206 AM 76 73 93 64 29.98" 0 0.01 0
McLean 1E  05:30 AM 72 60 66% SW56 17 mph 245° @ 0135 AM 79 72 67 44 29.98" 0 0 0
Memphis 1NE  05:30 AM 73 66 81% SE67 24 mph 202° @ 0115 AM 82 73 81 55 29.94" 0 0 0
Menard 2NW   05:30 AM 76 67 74% W01 12 mph 181° @ 0124 AM 85 76 74 46 29.96" 0 0 0
Mertzon 3NNE  05:30 AM 73 67 80% SW22 13 mph 284° @ 1203 AM 78 72 87 66 29.98" 0 0 0
Morton 1ENE  05:30 AM 69 64 88% E23 18 mph 237° @ 1205 AM 76 66 92 64 30.07" 0.45 0.55 0
Muleshoe 2SSW  05:30 AM 65 62 93% S34 16 mph 2° @ 0115 AM 71 65 93 64 30.09" 0 0.01 0
New Home  05:30 AM 71 64 78% S44 16 mph 236° @ 1217 AM 76 70 85 60 30.05" 0 0 0
Northfield 1S  05:30 AM 73 66 79% W35 26 mph 266° @ 1240 AM 77 72 82 61 29.93" 0 0.02 0
O'Donnell 1N  05:30 AM 73 57 62% NE33 17 mph 224° @ 1210 AM 77 73 62 53 30.02" 0 0 0
Odell 4ENE  05:30 AM 74 67 79% W34 12 mph 306° @ 0457 AM 85 73 84 50 29.91" 0 0 0
Olton 6S  05:30 AM 70 65 89% W22 13 mph 331° @ 0145 AM 74 69 89 72 30.05" 0 0 0
Paducah 10SW  05:30 AM 76 65 72% W911 15 mph 254° @ 0400 AM 78 73 86 67 29.91" 0 0 0
Palo Duro Canyon SP Floor  05:30 AM 73 63 71% NW45 17 mph 172° @ 0151 AM 79 72 77 58 30.00" 0 0 0
Palo Duro Canyon State Park Rim  05:30 AM 70 62 76% W710 15 mph 229° @ 0406 AM 75 70 79 60 30.04" 0 0 0
Pampa 2E  05:30 AM 72 61 71% SW56 24 mph 211° @ 0155 AM 79 70 77 55 30.01" 0 0 0
Panhandle 1SSW  05:30 AM 69 62 81% SW56 16 mph 195° @ 0233 AM 73 69 83 68 30.05" 0 0 0
Plains 3N  05:30 AM 68 64 91% N1012 21 mph 352° @ 0410 AM 77 68 91 52 30.08" 0.12 0.12 0
Plainview 1S  05:30 AM 71 66 84% NW56 20 mph 1° @ 0250 AM 78 71 87 62 30.02" 0 0 0
Post 1NE  05:30 AM 75 62 64% SW810 11 mph 259° @ 0520 AM 79 74 76 60 29.97" 0 0 0
Ralls 1SE  05:30 AM 69 59 73% W56 12 mph 186° @ 0400 AM 77 69 76 60 30.01" 0 0 0
Reese Center  05:30 AM 70 61 75% S13 15 mph 346° @ 0315 AM 76 70 75 57 30.04" 0 0 0
Roaring Springs 3N  05:30 AM 73 64 74% W1012 16 mph 344° @ 1225 AM 78 73 78 58 29.96" 0 0 0
San Angelo 7NW  05:30 AM 75 60 61% SW44 10 mph 319° @ 0110 AM 84 75 63 46 29.95" 0 0 0
Seagraves 1SW  05:30 AM 74 61 66% NE711 15 mph 10° @ 0500 AM 75 72 70 57 30.04" 0 0 0
Seminole 2NNE  05:30 AM 73 62 72% NE1317 17 mph 55° @ 0530 AM 75 73 72 58 30.04" 0 0 0
Seymour 3NW  03:25 AM 82 62 52% SW67 16 mph 246° @ 1225 AM 90 82 52 39 29.87" 0 0 0
Sierra Blanca 1SSE  05:30 AM 66 63 88% SW44 16 mph 186° @ 1240 AM 70 65 96 78 30.11" 0 0.02 0
Silverton 7ESE  05:30 AM 68 64 88% SW67 24 mph 261° @ 0330 AM 74 68 88 68 30.00" 0 0.19 0
Slaton 2NE  05:30 AM 73 61 69% SW67 12 mph 145° @ 0335 AM 76 73 69 59 30.02" 0 0 0
Snyder 3E  05:30 AM 74 65 74% W56 21 mph 164° @ 0215 AM 80 73 84 59 29.97" 0 0 0
Snyder 3SSW  05:30 AM 74 65 73% W67 18 mph 111° @ 1251 AM 81 74 84 57 29.97" 0 0 0
Spur 1W  05:30 AM 76 62 64% E34 19 mph 248° @ 0350 AM 78 74 66 56 29.94" 0 0 0
St. Lawrence 5SW  05:30 AM 69 61 77% NE89 19 mph 235° @ 1205 AM 76 69 80 54 30.00" 0 0 0
Stamford 5ESE  05:30 AM 75 62 64% NW11 14 mph 296° @ 0204 AM 87 75 66 47 29.91" 0 0 0
Sterling City 4WSW  05:30 AM 71 66 84% W77 9 mph 67° @ 0149 AM 79 71 84 58 30.00" 0 0 0
Stinnett 1NNW  05:30 AM 72 62 70% NE33 22 mph 358° @ 0254 AM 78 72 73 51 30.01" 0 0 0
Sundown 8WSW  05:30 AM 68 63 86% N57 15 mph 209° @ 1250 AM 76 67 86 56 30.06" 0 0 0
Sweetwater 11SW   05:30 AM 72 69 92% SW33 34 mph 284° @ 1223 AM 74 69 96 71 29.98" 0 0.49 0
Tahoka 3NNE  05:30 AM 70 63 76% SW34 15 mph 120° @ 0321 AM 77 70 78 53 30.03" 0 0 0
Tarzan 2WNW  05:30 AM 71 65 82% W34 17 mph 77° @ 0334 AM 74 70 82 64 30.02" 0 0 0
Tatum NM 2SW  05:30 AM 68 62 84% N46 21 mph 314° @ 1230 AM 72 65 91 70 30.08" 0 0.01 0
Throckmorton 1SW  05:30 AM 77 70 81% W56 20 mph 191° @ 1253 AM 87 75 82 48 29.91" 0 0 0
Tulia 2ENE  05:30 AM 69 66 93% W1015 21 mph 50° @ 0220 AM 76 66 97 65 30.02" 0.01 0.32 0
Turkey 2WSW  05:30 AM 72 68 89% S67 34 mph 138° @ 1210 AM 80 72 89 56 29.95" 0 0.01 0
Umbarger 3NNE  05:30 AM 67 61 83% SW88 23 mph 177° @ 0252 AM 73 66 83 62 30.07" 0 0 0
Vigo Park  05:30 AM 68 63 84% W1111 25 mph 360° @ 0124 AM 75 67 93 61 30.02" 0.02 0.69 0
Wall 2E  05:30 AM 76 65 68% SW45 11 mph 271° @ 0129 AM 86 76 68 48 29.96" 0 0 0
Weinert 2NNE  05:30 AM 76 63 63% W22 10 mph 247° @ 1235 AM 88 76 66 45 29.90" 0 0 0
Welch  05:30 AM 73 61 66% NE45 13 mph 219° @ 1209 AM 77 73 73 53 30.03" 0 0 0
White River Lake 6NW  05:30 AM 76 58 57% W1012 13 mph 251° @ 0440 AM 79 73 65 54 29.96" 0 0 0
Wolfforth 6SSW  05:30 AM 71 60 68% N67 18 mph 238° @ 1220 AM 78 71 68 52 30.04" 0 0 0

West Texas Mesonet Home   Site Map/Menu  NWS Lubbock Soil Data  Daily Summary Page  24hr Precip  72hr Precip  Google Plot